Time;durP1;ratioP1;P1;durP2;ratioP2;P2;SDS_P1;SDS_P2;PMS_P1;PMS_P2;Temp;Humidity;BMP_temperature;BMP_pressure;BME280_temperature;BME280_humidity;BME280_pressure;Samples;Min_cycle;Max_cycle;Signal;HPM_P1;HPM_P2
2021/03/03 00:02:14;;;;;;;60.17;26.77;;;2.20;99.90;;;;;;4425086;32;20151;-70
2021/03/03 00:04:41;;;;;;;59.90;27.13;;;2.30;99.90;;;;;;4427029;32;20155;-71
2021/03/03 00:07:07;;;;;;;62.83;29.17;;;2.40;99.90;;;;;;4425828;32;20150;-71
2021/03/03 00:09:34;;;;;;;63.50;28.13;;;2.40;99.90;;;;;;4426991;32;20508;-71
2021/03/03 00:12:01;;;;;;;66.67;27.80;;;2.40;99.90;;;;;;4425695;32;20131;-71
2021/03/03 00:14:27;;;;;;;72.83;30.93;;;2.40;99.90;;;;;;4425598;32;20206;-71
2021/03/03 00:16:54;;;;;;;73.60;31.47;;;2.40;99.90;;;;;;4426186;32;20218;-71
2021/03/03 00:19:20;;;;;;;80.80;31.90;;;2.40;99.90;;;;;;4426754;32;20143;-71
2021/03/03 00:21:47;;;;;;;83.50;33.07;;;2.40;99.90;;;;;;4426814;32;20202;-71
2021/03/03 00:24:13;;;;;;;81.67;31.77;;;2.30;99.90;;;;;;4425782;32;20569;-72
2021/03/03 00:26:39;;;;;;;81.73;32.23;;;2.30;99.90;;;;;;4426958;32;20163;-71
2021/03/03 00:29:06;;;;;;;78.40;32.10;;;2.30;99.90;;;;;;4425692;32;20159;-71
2021/03/03 00:31:32;;;;;;;78.93;31.47;;;2.30;99.90;;;;;;4425855;32;20188;-71
2021/03/03 00:33:59;;;;;;;81.07;33.50;;;2.30;99.90;;;;;;4425354;32;20140;-71
2021/03/03 00:36:26;;;;;;;83.33;32.90;;;2.30;99.90;;;;;;4426568;32;20187;-71
2021/03/03 00:38:52;;;;;;;85.47;33.77;;;2.30;99.90;;;;;;4425608;32;20219;-71
2021/03/03 00:41:19;;;;;;;86.57;33.83;;;2.30;99.90;;;;;;4425750;32;20206;-72
2021/03/03 00:43:45;;;;;;;75.67;31.97;;;2.40;99.90;;;;;;4425077;32;20353;-71
2021/03/03 00:46:11;;;;;;;81.90;31.47;;;2.30;99.90;;;;;;4425730;32;20139;-71
2021/03/03 00:48:38;;;;;;;80.57;31.17;;;2.30;99.90;;;;;;4412863;32;20458;-71
2021/03/03 00:51:04;;;;;;;83.40;32.30;;;2.30;99.90;;;;;;4424763;32;20458;-71
2021/03/03 00:53:31;;;;;;;92.50;34.37;;;2.40;99.90;;;;;;4425367;32;20210;-71
2021/03/03 00:55:58;;;;;;;85.83;33.33;;;2.40;99.90;;;;;;4425086;32;20138;-71
2021/03/03 00:58:24;;;;;;;87.90;34.37;;;2.50;99.90;;;;;;4426503;32;20181;-71
2021/03/03 01:00:51;;;;;;;88.90;34.07;;;2.50;99.90;;;;;;4424732;32;20143;-71
2021/03/03 01:03:18;;;;;;;88.40;33.87;;;2.40;99.90;;;;;;4425346;32;20209;-72
2021/03/03 01:05:44;;;;;;;83.30;33.50;;;2.40;99.90;;;;;;4424938;32;20139;-72
2021/03/03 01:08:11;;;;;;;85.17;33.00;;;2.40;99.90;;;;;;4424894;32;20158;-72
2021/03/03 01:10:38;;;;;;;79.90;33.33;;;2.40;99.90;;;;;;4426354;32;20162;-72
2021/03/03 01:13:04;;;;;;;86.67;33.50;;;2.50;99.90;;;;;;4426267;32;20165;-72
2021/03/03 01:15:31;;;;;;;80.50;32.83;;;2.50;99.90;;;;;;4424753;32;20365;-72
2021/03/03 01:18:01;;;;;;;81.57;33.10;;;2.40;99.90;;;;;;4426228;32;20189;-72
2021/03/03 01:20:29;;;;;;;80.07;32.60;;;2.40;99.90;;;;;;4426194;32;20142;-73
2021/03/03 01:22:57;;;;;;;81.17;32.20;;;2.30;99.90;;;;;;4425329;32;20143;-72
2021/03/03 01:25:23;;;;;;;83.67;32.93;;;2.30;99.90;;;;;;4424780;32;20174;-72
2021/03/03 01:27:50;;;;;;;83.27;32.50;;;2.30;99.90;;;;;;4426158;32;20166;-73
2021/03/03 01:30:17;;;;;;;80.07;31.37;;;2.20;99.90;;;;;;4410655;32;20422;-73
2021/03/03 01:32:44;;;;;;;80.07;31.20;;;2.30;99.90;;;;;;4424612;32;20190;-72
2021/03/03 01:35:11;;;;;;;86.87;32.83;;;2.30;99.90;;;;;;4424570;32;20154;-72
2021/03/03 01:37:38;;;;;;;82.17;31.50;;;2.40;99.90;;;;;;4411657;32;20242;-73
2021/03/03 01:40:05;;;;;;;84.60;30.77;;;2.30;99.90;;;;;;4424569;32;20135;-72
2021/03/03 01:42:31;;;;;;;83.00;31.37;;;2.40;99.90;;;;;;4424438;32;20491;-72
2021/03/03 01:44:58;;;;;;;83.60;31.37;;;2.40;99.90;;;;;;4425495;32;20180;-72
2021/03/03 01:47:25;;;;;;;77.97;31.07;;;2.40;99.90;;;;;;4425239;32;20198;-72
2021/03/03 01:49:51;;;;;;;79.90;32.43;;;2.30;99.90;;;;;;4424998;32;20192;-72
2021/03/03 01:52:19;;;;;;;83.03;32.33;;;2.30;99.90;;;;;;4432317;32;20155;-72
2021/03/03 01:54:46;;;;;;;84.43;32.33;;;2.30;99.90;;;;;;4424876;32;20517;-72
2021/03/03 01:57:13;;;;;;;81.63;31.80;;;2.30;99.90;;;;;;4425410;32;20174;-72
2021/03/03 01:59:39;;;;;;;80.00;30.63;;;2.30;99.90;;;;;;4425303;32;20143;-73
2021/03/03 02:02:06;;;;;;;72.10;28.97;;;2.30;99.90;;;;;;4425678;32;20182;-72
2021/03/03 02:04:34;;;;;;;78.37;30.67;;;2.30;99.90;;;;;;4424221;32;20138;-71
2021/03/03 02:07:30;;;;;;;72.90;29.53;;;2.30;99.90;;;;;;4424260;32;20383;-71
2021/03/03 02:10:18;;;;;;;76.50;29.03;;;2.30;99.90;;;;;;4362481;33;20479;-71
2021/03/03 02:12:58;;;;;;;75.80;29.37;;;2.30;99.90;;;;;;4361975;33;20271;-71
2021/03/03 02:15:26;;;;;;;84.27;32.17;;;2.20;99.90;;;;;;4361814;33;20231;-75
2021/03/03 02:17:54;;;;;;;82.30;32.43;;;2.20;99.90;;;;;;4360801;33;20202;-75
2021/03/03 02:20:25;;;;;;;84.47;31.90;;;2.20;99.90;;;;;;4360267;33;20172;-75
2021/03/03 02:23:07;;;;;;;80.57;30.87;;;2.20;99.90;;;;;;4362866;33;20214;-75
2021/03/03 02:25:36;;;;;;;85.50;31.43;;;2.20;99.90;;;;;;4362518;33;20183;-75
2021/03/03 02:28:09;;;;;;;83.20;31.30;;;2.20;99.90;;;;;;4361946;33;20194;-74
2021/03/03 02:30:42;;;;;;;80.43;30.03;;;2.20;99.90;;;;;;4361498;33;20198;-74
2021/03/03 02:33:12;;;;;;;82.07;30.23;;;2.20;99.90;;;;;;4362424;33;20155;-74
2021/03/03 02:35:40;;;;;;;87.43;31.33;;;2.20;99.90;;;;;;4361569;33;20140;-74
2021/03/03 02:38:08;;;;;;;74.63;28.97;;;2.20;99.90;;;;;;4361514;33;20160;-74
2021/03/03 02:40:35;;;;;;;68.17;26.50;;;2.20;99.90;;;;;;4361877;33;20413;-74
2021/03/03 02:43:02;;;;;;;67.63;26.90;;;2.20;99.90;;;;;;4362342;33;20546;-74
2021/03/03 02:45:29;;;;;;;70.07;27.17;;;2.10;99.90;;;;;;4368970;32;20172;-74
2021/03/03 02:47:57;;;;;;;67.33;26.90;;;2.10;99.90;;;;;;4424319;32;20181;-73
2021/03/03 02:50:23;;;;;;;71.90;27.63;;;2.10;99.90;;;;;;4434287;32;20175;-74
2021/03/03 02:52:57;;;;;;;74.97;27.50;;;2.10;99.90;;;;;;4439407;32;20135;-74
2021/03/03 02:55:26;;;;;;;70.10;27.13;;;1.90;99.90;;;;;;4439655;32;20244;-74
2021/03/03 02:57:54;;;;;;;65.80;26.10;;;1.90;99.90;;;;;;4439325;32;20191;-74
2021/03/03 03:00:29;;;;;;;64.17;24.40;;;1.80;99.90;;;;;;4439516;32;20164;-74
2021/03/03 03:03:13;;;;;;;61.67;23.77;;;1.90;99.90;;;;;;4439025;32;20444;-74
2021/03/03 03:05:43;;;;;;;59.80;22.93;;;1.90;99.90;;;;;;4439385;32;20147;-74
2021/03/03 03:08:14;;;;;;;56.47;21.57;;;1.90;99.90;;;;;;4441320;32;20139;-74
2021/03/03 03:10:42;;;;;;;61.97;24.67;;;1.90;99.90;;;;;;4427112;32;20390;-74
2021/03/03 03:13:13;;;;;;;59.97;23.90;;;1.80;99.90;;;;;;4441948;32;20161;-74
2021/03/03 03:15:40;;;;;;;60.63;24.13;;;1.80;99.90;;;;;;4442215;32;20164;-74
2021/03/03 03:18:17;;;;;;;57.47;22.50;;;1.80;99.90;;;;;;4428702;32;20147;-74
2021/03/03 03:20:45;;;;;;;61.27;23.07;;;1.80;99.90;;;;;;4442887;32;20174;-74
2021/03/03 03:23:14;;;;;;;62.23;24.67;;;1.80;99.90;;;;;;4441714;32;20197;-74
2021/03/03 03:25:40;;;;;;;66.30;24.83;;;1.80;99.90;;;;;;4443093;32;20138;-74
2021/03/03 03:28:07;;;;;;;61.37;24.47;;;1.80;99.90;;;;;;4441941;32;20207;-74
2021/03/03 03:30:34;;;;;;;60.73;24.27;;;1.80;99.90;;;;;;4443245;32;20195;-74
2021/03/03 03:33:02;;;;;;;60.17;23.73;;;1.80;99.90;;;;;;4441701;32;20161;-74
2021/03/03 03:35:29;;;;;;;63.10;23.40;;;1.80;99.90;;;;;;4442538;32;20440;-74
2021/03/03 03:37:57;;;;;;;59.63;23.67;;;1.90;99.90;;;;;;4442437;32;20424;-74
2021/03/03 03:40:24;;;;;;;56.77;22.50;;;1.90;99.90;;;;;;4441561;32;20245;-74
2021/03/03 03:42:56;;;;;;;58.93;23.00;;;1.90;99.90;;;;;;4442295;32;20368;-74
2021/03/03 03:45:24;;;;;;;70.33;23.47;;;1.80;99.90;;;;;;4441769;32;20176;-74
2021/03/03 03:47:51;;;;;;;66.03;24.60;;;1.70;99.90;;;;;;4441512;32;20162;-74
2021/03/03 03:50:19;;;;;;;66.87;24.10;;;1.60;99.90;;;;;;4442898;32;20390;-74
2021/03/03 03:52:51;;;;;;;65.67;24.53;;;1.60;99.90;;;;;;4441456;32;20147;-74
2021/03/03 03:55:17;;;;;;;58.60;22.87;;;1.50;99.90;;;;;;4441822;32;20385;-74
2021/03/03 03:57:51;;;;;;;62.23;23.23;;;1.60;99.90;;;;;;4441239;32;20174;-74
2021/03/03 04:00:20;;;;;;;59.30;23.03;;;1.70;99.90;;;;;;4441463;32;20207;-74
2021/03/03 04:02:48;;;;;;;60.83;22.83;;;1.70;99.90;;;;;;4442560;32;20521;-74
2021/03/03 04:05:16;;;;;;;58.20;23.13;;;1.70;99.90;;;;;;4441031;32;20146;-74
2021/03/03 04:07:43;;;;;;;62.13;23.03;;;1.80;99.90;;;;;;4441172;32;20193;-74
2021/03/03 04:10:12;;;;;;;59.23;23.13;;;1.80;99.90;;;;;;4442097;32;20370;-74
2021/03/03 04:12:39;;;;;;;61.07;22.83;;;1.80;99.90;;;;;;4441121;32;20153;-74
2021/03/03 04:15:07;;;;;;;58.10;23.33;;;1.80;99.90;;;;;;4440564;32;20158;-74
2021/03/03 04:17:35;;;;;;;67.50;24.27;;;1.80;99.90;;;;;;4440488;32;20157;-74
2021/03/03 04:20:04;;;;;;;65.23;24.23;;;1.80;99.90;;;;;;4441005;32;20162;-74
2021/03/03 04:22:30;;;;;;;59.00;22.90;;;1.80;99.90;;;;;;4442000;32;20403;-74
2021/03/03 04:24:57;;;;;;;65.23;24.13;;;1.80;99.90;;;;;;4441124;32;20470;-74
2021/03/03 04:27:23;;;;;;;59.43;22.50;;;1.80;99.90;;;;;;4441222;32;20174;-74
2021/03/03 04:29:50;;;;;;;56.60;22.23;;;1.70;99.90;;;;;;4442412;32;20472;-74
2021/03/03 04:32:16;;;;;;;63.87;23.43;;;1.70;99.90;;;;;;4440985;32;20190;-74
2021/03/03 04:34:43;;;;;;;72.13;23.43;;;1.80;99.90;;;;;;4442355;32;20138;-73
2021/03/03 04:37:09;;;;;;;77.30;23.37;;;1.60;99.90;;;;;;4441122;32;20131;-74
2021/03/03 04:39:36;;;;;;;70.20;25.17;;;1.40;99.90;;;;;;4440795;32;20197;-74
2021/03/03 04:42:03;;;;;;;64.07;23.90;;;1.40;99.90;;;;;;4441350;32;20142;-74
2021/03/03 04:44:30;;;;;;;67.10;24.73;;;1.30;99.90;;;;;;4440362;32;20138;-74
2021/03/03 04:46:57;;;;;;;65.30;22.67;;;1.20;99.90;;;;;;4440862;32;20166;-74
2021/03/03 04:49:25;;;;;;;63.53;23.33;;;1.30;99.90;;;;;;4440648;32;20236;-74
2021/03/03 04:51:53;;;;;;;59.60;21.50;;;1.30;99.90;;;;;;4440710;32;20146;-74
2021/03/03 04:54:19;;;;;;;63.30;22.87;;;1.40;99.90;;;;;;4440395;32;20448;-73
2021/03/03 04:56:46;;;;;;;57.50;21.73;;;1.50;99.90;;;;;;4441956;32;20201;-74
2021/03/03 04:59:12;;;;;;;59.13;22.87;;;1.50;99.90;;;;;;4440360;32;20188;-74
2021/03/03 05:01:39;;;;;;;60.47;22.00;;;1.60;99.90;;;;;;4440162;32;20225;-74
2021/03/03 05:04:06;;;;;;;63.77;23.13;;;1.60;99.90;;;;;;4441767;32;20171;-74
2021/03/03 05:06:32;;;;;;;74.43;25.43;;;1.60;99.90;;;;;;4441105;32;20165;-74
2021/03/03 05:08:59;;;;;;;64.23;23.63;;;1.40;99.90;;;;;;4440495;32;20162;-74
2021/03/03 05:11:25;;;;;;;65.37;23.53;;;1.30;99.90;;;;;;4440469;32;20134;-74
2021/03/03 05:13:52;;;;;;;64.97;24.10;;;1.30;99.90;;;;;;4440453;32;20399;-74
2021/03/03 05:16:18;;;;;;;66.40;23.57;;;1.30;99.90;;;;;;4440193;32;20142;-74
2021/03/03 05:18:45;;;;;;;67.90;23.53;;;1.40;99.90;;;;;;4441037;32;20189;-74
2021/03/03 05:21:12;;;;;;;71.17;24.53;;;1.40;99.90;;;;;;4441654;32;20154;-74
2021/03/03 05:23:38;;;;;;;66.07;22.67;;;1.40;99.90;;;;;;4441466;32;20158;-73
2021/03/03 05:26:06;;;;;;;63.90;23.53;;;1.40;99.90;;;;;;4441501;32;20166;-73
2021/03/03 05:28:33;;;;;;;68.93;23.73;;;1.30;99.90;;;;;;4439492;32;20146;-73
2021/03/03 05:31:00;;;;;;;62.37;23.23;;;1.30;99.90;;;;;;4441202;32;20202;-73
2021/03/03 05:33:29;;;;;;;65.93;23.30;;;1.30;99.90;;;;;;4439332;32;20207;-73
2021/03/03 05:35:59;;;;;;;67.23;23.63;;;1.10;99.90;;;;;;4439843;32;20157;-73
2021/03/03 05:38:26;;;;;;;73.03;24.40;;;1.00;99.90;;;;;;4439805;32;20150;-73
2021/03/03 05:40:54;;;;;;;73.87;23.43;;;1.00;99.90;;;;;;4439712;32;20157;-73
2021/03/03 05:43:22;;;;;;;74.60;23.23;;;0.90;99.90;;;;;;4440719;32;20146;-73
2021/03/03 05:45:50;;;;;;;70.17;22.67;;;0.90;99.90;;;;;;4439832;32;20139;-73
2021/03/03 05:48:23;;;;;;;82.20;23.07;;;0.80;99.90;;;;;;4440828;32;20164;-73
2021/03/03 05:50:57;;;;;;;71.30;23.80;;;0.80;99.90;;;;;;4440103;32;20138;-72
2021/03/03 05:53:29;;;;;;;72.63;24.40;;;0.80;99.90;;;;;;4441289;32;20511;-72
2021/03/03 05:55:57;;;;;;;99.63;24.90;;;0.70;99.90;;;;;;4441606;32;20147;-72
2021/03/03 05:58:26;;;;;;;67.93;23.47;;;0.70;99.90;;;;;;4441211;32;20138;-72
2021/03/03 06:00:56;;;;;;;77.73;23.63;;;0.50;99.90;;;;;;4440818;32;20527;-72
2021/03/03 06:03:24;;;;;;;63.90;21.80;;;0.50;99.90;;;;;;4441065;32;20390;-72
2021/03/03 06:05:52;;;;;;;67.93;22.77;;;0.60;99.90;;;;;;4439651;32;20569;-72
2021/03/03 06:08:21;;;;;;;70.73;22.40;;;0.60;99.90;;;;;;4439599;32;20190;-73
2021/03/03 06:10:48;;;;;;;69.93;23.73;;;0.90;99.90;;;;;;4441133;32;20142;-73
2021/03/03 06:13:16;;;;;;;67.47;22.73;;;1.00;99.90;;;;;;4439688;32;20191;-72
2021/03/03 06:15:43;;;;;;;61.80;21.63;;;1.00;99.90;;;;;;4441127;32;20465;-73
2021/03/03 06:18:12;;;;;;;66.93;22.23;;;1.10;99.90;;;;;;4439501;32;20161;-72
2021/03/03 06:20:44;;;;;;;67.07;21.50;;;1.10;99.90;;;;;;4439580;32;20195;-73
2021/03/03 06:23:15;;;;;;;62.43;21.73;;;1.20;99.90;;;;;;4439705;32;20155;-73
2021/03/03 06:25:43;;;;;;;68.87;23.00;;;1.20;99.90;;;;;;4440795;32;20139;-73
2021/03/03 06:28:10;;;;;;;61.80;21.70;;;1.20;99.90;;;;;;4439509;32;20181;-73
2021/03/03 06:30:37;;;;;;;66.00;21.63;;;1.30;99.90;;;;;;4439513;32;20193;-72
2021/03/03 06:33:06;;;;;;;64.73;21.83;;;1.30;99.90;;;;;;4438967;32;20223;-73
2021/03/03 06:35:41;;;;;;;65.20;22.13;;;1.30;99.90;;;;;;4440949;32;20139;-73
2021/03/03 06:38:13;;;;;;;57.07;19.20;;;1.20;99.90;;;;;;4440957;32;20138;-73
2021/03/03 06:40:53;;;;;;;59.13;20.40;;;1.30;99.90;;;;;;4439522;32;20194;-73
2021/03/03 06:43:22;;;;;;;59.73;21.20;;;1.20;99.90;;;;;;4439563;32;20193;-73
2021/03/03 06:45:49;;;;;;;68.00;21.77;;;1.20;99.90;;;;;;4440711;32;20147;-74
2021/03/03 06:48:39;;;;;;;63.77;21.53;;;1.30;99.90;;;;;;4442424;32;20492;-74
2021/03/03 06:51:18;;;;;;;78.03;23.03;;;1.30;99.90;;;;;;4432835;32;20177;-74
2021/03/03 06:53:45;;;;;;;68.67;22.97;;;1.30;99.90;;;;;;4442248;32;20538;-73
2021/03/03 06:56:12;;;;;;;67.93;23.37;;;1.30;99.90;;;;;;4442133;32;20410;-73
2021/03/03 06:58:38;;;;;;;66.63;22.77;;;1.20;99.90;;;;;;4442202;32;20134;-73
2021/03/03 07:01:05;;;;;;;74.73;23.63;;;1.00;99.90;;;;;;4441756;32;20489;-74
2021/03/03 07:03:34;;;;;;;68.13;21.90;;;1.00;99.90;;;;;;4443702;32;20171;-73
2021/03/03 07:06:02;;;;;;;76.00;23.50;;;1.00;99.90;;;;;;4442366;32;20187;-73
2021/03/03 07:08:29;;;;;;;67.20;21.77;;;0.90;99.90;;;;;;4442009;32;20491;-73
2021/03/03 07:10:56;;;;;;;71.17;22.93;;;0.80;99.90;;;;;;4442536;32;20157;-73
2021/03/03 07:13:41;;;;;;;74.03;23.20;;;0.90;99.90;;;;;;4442250;32;20201;-73
2021/03/03 07:16:09;;;;;;;66.23;21.33;;;0.70;99.90;;;;;;4441738;32;20193;-73
2021/03/03 07:18:39;;;;;;;65.27;20.33;;;0.70;99.90;;;;;;4441780;32;20143;-72
2021/03/03 07:21:08;;;;;;;68.87;22.10;;;0.70;99.90;;;;;;4441712;32;20139;-73
2021/03/03 07:23:47;;;;;;;70.00;21.97;;;0.60;99.90;;;;;;4441855;32;20224;-73
2021/03/03 07:26:16;;;;;;;62.93;21.63;;;0.50;99.90;;;;;;4442950;32;20201;-73
2021/03/03 07:28:43;;;;;;;69.20;22.20;;;0.70;99.90;;;;;;4441179;32;20151;-73
2021/03/03 07:31:13;;;;;;;70.87;23.50;;;0.70;99.90;;;;;;4443148;32;20221;-73
2021/03/03 07:33:40;;;;;;;76.47;22.90;;;0.80;99.90;;;;;;4442357;32;20165;-73
2021/03/03 07:36:08;;;;;;;81.57;24.30;;;0.80;99.90;;;;;;4441527;32;20389;-74
2021/03/03 07:38:37;;;;;;;72.60;23.10;;;0.80;99.90;;;;;;4441943;32;20205;-74
2021/03/03 07:41:09;;;;;;;62.20;21.30;;;0.70;99.90;;;;;;4442034;32;20150;-74
2021/03/03 07:43:36;;;;;;;64.37;21.87;;;0.70;99.90;;;;;;4441600;32;20139;-74
2021/03/03 07:46:07;;;;;;;78.37;23.27;;;0.70;99.90;;;;;;4427202;32;20171;-74
2021/03/03 07:48:36;;;;;;;82.13;22.83;;;0.60;99.90;;;;;;4443052;32;20191;-73
2021/03/03 07:51:06;;;;;;;73.43;23.70;;;0.60;99.90;;;;;;4442037;32;20130;-73
2021/03/03 07:53:39;;;;;;;78.20;24.93;;;0.60;99.90;;;;;;4441811;32;20407;-72
2021/03/03 07:56:08;;;;;;;73.70;23.83;;;0.70;99.90;;;;;;4441043;32;20199;-73
2021/03/03 07:58:36;;;;;;;76.00;23.93;;;0.80;99.90;;;;;;4427073;32;20170;-74
2021/03/03 08:01:22;;;;;;;79.07;24.07;;;0.80;99.90;;;;;;4441075;32;20157;-74
2021/03/03 08:03:51;;;;;;;72.80;22.90;;;0.90;99.90;;;;;;4440617;32;20191;-73
2021/03/03 08:06:30;;;;;;;70.00;22.40;;;0.90;99.90;;;;;;4441056;32;20146;-74
2021/03/03 08:09:05;;;;;;;72.43;22.60;;;1.00;99.90;;;;;;4441435;32;20457;-73
2021/03/03 08:11:40;;;;;;;62.37;22.00;;;1.00;99.90;;;;;;4441035;32;20138;-73
2021/03/03 08:14:30;;;;;;;72.50;22.47;;;0.90;99.90;;;;;;4441383;32;20138;-73
2021/03/03 08:17:02;;;;;;;72.47;23.57;;;0.90;99.90;;;;;;4428683;32;20147;-74
2021/03/03 08:19:59;;;;;;;76.20;24.07;;;1.00;99.90;;;;;;4441264;32;20181;-73
2021/03/03 08:22:51;;;;;;;66.33;23.33;;;1.10;99.90;;;;;;4442038;32;20173;-72
2021/03/03 08:25:47;;;;;;;72.43;23.47;;;1.30;99.90;;;;;;4440697;32;20169;-73
2021/03/03 08:28:25;;;;;;;66.33;21.50;;;1.40;99.90;;;;;;4442175;32;20172;-72
2021/03/03 08:31:10;;;;;;;62.07;22.30;;;1.60;99.90;;;;;;4441890;32;20176;-73
2021/03/03 08:33:45;;;;;;;65.80;22.27;;;1.70;99.90;;;;;;4440780;32;20229;-73
2021/03/03 08:36:17;;;;;;;62.10;21.47;;;1.90;99.90;;;;;;4440607;32;20142;-73
2021/03/03 08:38:56;;;;;;;64.37;22.30;;;2.00;99.90;;;;;;4440588;32;20157;-72
2021/03/03 08:41:28;;;;;;;62.90;23.23;;;2.10;99.90;;;;;;4440446;32;20152;-73
2021/03/03 08:44:03;;;;;;;59.60;21.63;;;2.00;99.90;;;;;;4441733;32;20211;-73
2021/03/03 08:46:29;;;;;;;64.47;22.83;;;2.00;99.90;;;;;;4441505;32;20134;-73
2021/03/03 08:48:57;;;;;;;66.87;22.07;;;2.00;99.90;;;;;;4441291;32;20161;-73
2021/03/03 08:51:34;;;;;;;67.07;23.97;;;2.10;99.90;;;;;;4440314;32;20484;-74
2021/03/03 08:54:06;;;;;;;63.17;22.20;;;2.20;99.90;;;;;;4441794;32;20514;-73
2021/03/03 08:56:49;;;;;;;69.27;23.77;;;2.30;99.90;;;;;;4440989;32;20162;-74
2021/03/03 08:59:37;;;;;;;66.23;22.50;;;2.30;99.90;;;;;;4440614;32;20147;-74
2021/03/03 09:02:08;;;;;;;66.70;24.00;;;2.40;99.90;;;;;;4439594;32;20454;-74
2021/03/03 09:04:43;;;;;;;62.27;23.57;;;2.50;99.90;;;;;;4441134;32;20139;-73
2021/03/03 09:07:29;;;;;;;65.60;22.03;;;2.70;99.90;;;;;;4427924;32;20193;-73
2021/03/03 09:10:01;;;;;;;59.97;22.33;;;2.60;99.90;;;;;;4441789;32;20525;-73
2021/03/03 09:12:39;;;;;;;59.93;21.23;;;2.40;99.90;;;;;;4440101;32;20170;-72
2021/03/03 09:15:09;;;;;;;62.20;22.77;;;2.50;99.90;;;;;;4440503;32;20214;-73
2021/03/03 09:17:37;;;;;;;64.20;22.37;;;2.40;99.90;;;;;;4439892;32;20150;-72
2021/03/03 09:20:31;;;;;;;65.33;22.80;;;2.30;99.90;;;;;;4441447;32;20138;-70
2021/03/03 09:22:58;;;;;;;64.50;22.77;;;2.20;99.90;;;;;;4436874;32;20245;-70
2021/03/03 09:25:24;;;;;;;66.87;23.27;;;2.20;99.90;;;;;;4439878;32;20416;-69
2021/03/03 09:27:51;;;;;;;64.40;22.27;;;2.30;99.90;;;;;;4425431;32;20180;-69
2021/03/03 09:30:20;;;;;;;68.60;23.93;;;2.30;99.90;;;;;;4439809;32;20468;-71
2021/03/03 09:32:47;;;;;;;65.97;23.93;;;2.40;99.90;;;;;;4439917;32;20155;-70
2021/03/03 09:35:17;;;;;;;65.67;23.30;;;2.50;99.90;;;;;;4440961;32;20551;-70
2021/03/03 09:37:47;;;;;;;67.07;23.50;;;2.40;99.90;;;;;;4441167;32;20134;-70
2021/03/03 09:40:16;;;;;;;65.97;23.57;;;2.60;99.90;;;;;;4441100;32;20151;-69
2021/03/03 09:42:45;;;;;;;66.43;24.17;;;2.60;99.90;;;;;;4439433;32;20139;-71
2021/03/03 09:45:22;;;;;;;61.60;22.90;;;2.80;99.90;;;;;;4440832;32;20494;-70
2021/03/03 09:47:51;;;;;;;64.50;22.57;;;2.80;99.90;;;;;;4439161;32;20188;-73
2021/03/03 09:50:29;;;;;;;57.40;22.03;;;2.60;99.90;;;;;;4440794;32;20427;-71
2021/03/03 09:52:59;;;;;;;57.23;21.67;;;2.70;99.90;;;;;;4439510;32;20161;-70
2021/03/03 09:55:33;;;;;;;58.80;21.67;;;2.70;99.90;;;;;;4439689;32;20143;-71
2021/03/03 09:58:02;;;;;;;60.57;22.80;;;2.80;99.90;;;;;;4440794;32;20139;-71
2021/03/03 10:00:36;;;;;;;65.93;23.43;;;3.00;99.90;;;;;;4439400;32;20143;-71
2021/03/03 10:03:11;;;;;;;63.03;23.13;;;3.20;99.90;;;;;;4439879;32;20131;-71
2021/03/03 10:05:38;;;;;;;61.27;22.50;;;3.30;99.90;;;;;;4441026;32;20151;-72
2021/03/03 10:08:13;;;;;;;57.33;22.00;;;3.30;99.90;;;;;;4439961;32;20179;-71
2021/03/03 10:10:46;;;;;;;62.37;23.43;;;2.90;99.90;;;;;;4440085;32;20145;-72
2021/03/03 10:13:20;;;;;;;65.67;24.67;;;2.70;99.90;;;;;;4439075;32;20161;-72
2021/03/03 10:15:47;;;;;;;68.37;23.53;;;2.70;99.90;;;;;;4439379;32;20461;-72
2021/03/03 10:18:14;;;;;;;68.83;25.00;;;2.90;99.90;;;;;;4431391;32;20134;-72
2021/03/03 10:20:56;;;;;;;69.87;25.20;;;2.60;99.90;;;;;;4430827;32;20176;-70
2021/03/03 10:23:24;;;;;;;69.47;25.10;;;2.70;99.90;;;;;;4433231;32;20142;-71
2021/03/03 10:25:52;;;;;;;64.20;24.40;;;3.00;99.90;;;;;;4439831;32;20207;-72
2021/03/03 10:28:27;;;;;;;65.83;25.03;;;3.10;99.90;;;;;;4441709;32;20156;-71
2021/03/03 10:30:58;;;;;;;61.37;23.97;;;3.00;99.90;;;;;;4443304;32;20425;-71
2021/03/03 10:33:35;;;;;;;61.47;24.63;;;3.10;99.90;;;;;;4442275;32;20174;-71
2021/03/03 10:36:20;;;;;;;66.90;24.60;;;3.30;99.90;;;;;;4442382;32;20288;-72
2021/03/03 10:38:48;;;;;;;62.07;23.27;;;3.40;99.90;;;;;;4442186;32;20161;-71
2021/03/03 10:41:27;;;;;;;64.70;24.77;;;3.60;99.90;;;;;;4443019;32;20179;-71
2021/03/03 10:43:54;;;;;;;62.17;24.63;;;3.40;99.90;;;;;;4441571;32;20430;-72
2021/03/03 10:46:23;;;;;;;64.67;24.13;;;3.60;99.90;;;;;;4441692;32;20142;-71
2021/03/03 10:48:56;;;;;;;67.40;24.93;;;3.60;99.90;;;;;;4441333;32;20131;-71
2021/03/03 10:51:37;;;;;;;61.93;23.87;;;3.60;99.90;;;;;;4442498;32;20204;-72
2021/03/03 10:54:05;;;;;;;66.53;25.10;;;3.80;99.90;;;;;;4442039;32;20157;-73
2021/03/03 10:56:38;;;;;;;59.90;24.20;;;3.80;99.90;;;;;;4441926;32;20139;-72
2021/03/03 10:59:30;;;;;;;59.77;25.03;;;4.00;99.90;;;;;;4441827;32;20166;-72
2021/03/03 11:01:58;;;;;;;64.90;25.47;;;4.20;99.90;;;;;;4364559;32;20160;-71
2021/03/03 11:04:39;;;;;;;64.70;25.40;;;4.20;99.90;;;;;;4364223;32;20467;-71
2021/03/03 11:07:06;;;;;;;62.30;24.00;;;4.10;99.90;;;;;;4364583;32;20219;-73
2021/03/03 11:09:34;;;;;;;69.03;26.27;;;4.30;99.90;;;;;;4363830;32;20214;-71
2021/03/03 11:12:03;;;;;;;62.33;25.03;;;4.50;99.90;;;;;;4365264;32;20227;-72
2021/03/03 11:14:30;;;;;;;57.77;24.53;;;4.60;99.90;;;;;;4363756;32;20141;-72
2021/03/03 11:16:58;;;;;;;64.27;25.70;;;4.50;99.90;;;;;;4364077;32;20144;-72
2021/03/03 11:19:27;;;;;;;62.63;24.97;;;4.70;99.90;;;;;;4364246;32;20182;-72
2021/03/03 11:21:54;;;;;;;66.80;26.03;;;4.90;99.90;;;;;;4363689;32;20153;-71
2021/03/03 11:24:23;;;;;;;62.23;25.13;;;4.90;99.90;;;;;;4363709;32;20182;-71
2021/03/03 11:26:50;;;;;;;61.17;25.70;;;5.10;99.90;;;;;;4364185;32;20483;-72
2021/03/03 11:29:16;;;;;;;61.03;25.70;;;5.20;99.90;;;;;;4364024;32;20282;-72
2021/03/03 11:31:44;;;;;;;63.20;25.27;;;4.90;99.90;;;;;;4363815;32;20194;-72
2021/03/03 11:34:12;;;;;;;64.07;25.37;;;4.60;99.90;;;;;;4363651;32;20188;-72
2021/03/03 11:36:38;;;;;;;58.30;24.20;;;5.00;99.90;;;;;;4363785;32;20143;-72
2021/03/03 11:39:06;;;;;;;58.33;25.03;;;5.30;99.90;;;;;;4398545;32;20201;-72
2021/03/03 11:41:33;;;;;;;59.67;25.37;;;5.40;99.90;;;;;;4419655;32;20466;-71
2021/03/03 11:44:00;;;;;;;54.73;24.47;;;5.70;99.90;;;;;;4426522;32;20381;-71
2021/03/03 11:46:27;;;;;;;57.87;24.53;;;5.80;99.90;;;;;;4416378;32;20151;-72
2021/03/03 11:48:54;;;;;;;58.40;24.43;;;5.60;99.90;;;;;;4417260;32;20144;-71
2021/03/03 11:51:21;;;;;;;56.80;24.77;;;5.40;99.90;;;;;;4414290;32;20160;-71
2021/03/03 11:54:04;;;;;;;59.57;25.57;;;5.60;99.90;;;;;;4434635;32;20155;-70
2021/03/03 11:56:30;;;;;;;60.03;25.43;;;5.50;99.90;;;;;;4416278;32;20153;-71
2021/03/03 11:58:57;;;;;;;59.10;25.77;;;5.40;99.90;;;;;;4431986;32;20175;-71
2021/03/03 12:01:24;;;;;;;60.57;24.87;;;5.70;99.90;;;;;;4416922;32;20427;-72
2021/03/03 12:03:50;;;;;;;62.77;26.43;;;5.90;99.90;;;;;;4427273;32;20141;-72
2021/03/03 12:06:18;;;;;;;58.23;26.80;;;6.20;99.90;;;;;;4431670;32;20192;-71
2021/03/03 12:08:51;;;;;;;58.83;25.87;;;6.00;99.90;;;;;;4432401;32;20162;-71
2021/03/03 12:11:18;;;;;;;64.50;25.17;;;6.10;99.90;;;;;;4428619;32;20191;-71
2021/03/03 12:13:44;;;;;;;63.33;27.47;;;6.70;99.90;;;;;;4437126;32;20426;-72
2021/03/03 12:16:11;;;;;;;63.73;26.87;;;7.30;99.90;;;;;;4428805;32;20192;-72
2021/03/03 12:18:38;;;;;;;59.60;26.87;;;7.70;99.90;;;;;;4436556;32;20188;-72
2021/03/03 12:21:05;;;;;;;57.90;25.53;;;7.70;99.80;;;;;;4431806;32;20210;-72
2021/03/03 12:23:32;;;;;;;61.50;26.43;;;7.90;98.50;;;;;;4431037;32;20147;-72
2021/03/03 12:25:58;;;;;;;59.63;26.93;;;8.20;97.00;;;;;;4433620;32;20150;-72
2021/03/03 12:28:25;;;;;;;56.23;25.90;;;8.20;95.80;;;;;;4430383;32;20181;-73
2021/03/03 12:30:52;;;;;;;58.83;25.83;;;8.20;96.00;;;;;;4434388;32;20138;-72
2021/03/03 12:33:19;;;;;;;57.27;26.50;;;8.80;95.60;;;;;;4429026;32;20143;-71
2021/03/03 12:35:46;;;;;;;57.53;26.40;;;9.10;93.10;;;;;;4429133;32;20161;-72
2021/03/03 12:38:14;;;;;;;60.83;26.73;;;9.60;92.50;;;;;;4427658;32;20242;-73
2021/03/03 12:40:41;;;;;;;56.07;26.03;;;9.60;90.90;;;;;;4427028;32;20175;-72
2021/03/03 12:43:08;;;;;;;57.73;27.30;;;9.60;91.00;;;;;;4434425;32;20157;-72
2021/03/03 12:45:35;;;;;;;62.77;28.70;;;8.80;91.60;;;;;;4434016;32;20209;-72
2021/03/03 12:48:53;;;;;;;58.43;27.07;;;8.70;92.70;;;;;;4428155;32;20149;-72
2021/03/03 12:50:58;;;;;;;60.73;26.80;;;8.60;92.80;;;;;;4422236;32;20177;-72